Time;durP1;ratioP1;P1;durP2;ratioP2;P2;SDS_P1;SDS_P2;PMS_P1;PMS_P2;Temp;Humidity;BMP_temperature;BMP_pressure;BME280_temperature;BME280_humidity;BME280_pressure;Samples;Min_cycle;Max_cycle;Signal;HPM_P1;HPM_P2
2023/08/30 00:00:20;;;;;;;14.70;12.75;;;16.00;99.90;;;;;;4849584;29;20049;-77
2023/08/30 00:02:47;;;;;;;13.90;12.52;;;16.00;99.90;;;;;;4849688;29;20053;-77
2023/08/30 00:05:13;;;;;;;14.48;13.10;;;16.00;99.90;;;;;;4849395;29;20060;-77
2023/08/30 00:07:39;;;;;;;14.07;12.60;;;16.00;99.90;;;;;;4848728;29;20403;-79
2023/08/30 00:10:07;;;;;;;14.90;13.20;;;15.90;99.90;;;;;;4864542;29;20528;-77
2023/08/30 00:12:34;;;;;;;13.90;12.55;;;15.90;99.90;;;;;;4879800;29;20080;-78
2023/08/30 00:14:59;;;;;;;15.05;12.68;;;15.80;99.90;;;;;;4880024;29;20136;-77
2023/08/30 00:17:25;;;;;;;14.13;12.68;;;15.80;99.90;;;;;;4864171;29;20201;-77
2023/08/30 00:19:52;;;;;;;14.15;12.85;;;15.80;99.90;;;;;;4864564;29;20396;-77
2023/08/30 00:22:18;;;;;;;13.77;12.40;;;15.80;99.90;;;;;;4864264;29;20060;-77
2023/08/30 00:24:45;;;;;;;14.65;13.02;;;15.80;99.90;;;;;;4879151;29;20189;-77
2023/08/30 00:27:12;;;;;;;14.38;12.80;;;15.70;99.90;;;;;;4880123;29;20502;-77
2023/08/30 00:29:37;;;;;;;14.50;13.00;;;15.70;99.90;;;;;;4879528;29;20495;-77
2023/08/30 00:32:03;;;;;;;14.85;13.35;;;15.70;99.90;;;;;;4848711;29;20049;-77
2023/08/30 00:34:29;;;;;;;14.13;12.65;;;15.60;99.90;;;;;;4848296;29;20063;-77
2023/08/30 00:36:55;;;;;;;13.65;12.25;;;15.60;99.90;;;;;;4864215;29;20053;-77
2023/08/30 00:39:21;;;;;;;12.95;11.70;;;15.60;99.90;;;;;;4879204;29;20131;-77
2023/08/30 00:41:46;;;;;;;14.32;12.82;;;15.60;99.90;;;;;;4863619;29;20045;-77
2023/08/30 00:44:12;;;;;;;13.40;12.02;;;15.50;99.90;;;;;;4864006;29;20076;-77
2023/08/30 00:46:38;;;;;;;14.38;12.27;;;15.50;99.90;;;;;;4879185;29;20110;-77
2023/08/30 00:49:04;;;;;;;14.98;12.35;;;15.50;99.90;;;;;;4862939;29;20060;-77
2023/08/30 00:51:30;;;;;;;13.85;12.40;;;15.50;99.90;;;;;;4863267;29;20511;-77
2023/08/30 00:53:58;;;;;;;14.05;12.48;;;15.40;99.90;;;;;;4864131;29;20053;-77
2023/08/30 00:56:23;;;;;;;14.68;12.60;;;15.40;99.90;;;;;;4879074;29;20104;-77
2023/08/30 00:58:49;;;;;;;12.95;11.23;;;15.40;99.90;;;;;;4863151;29;20045;-76
2023/08/30 01:01:16;;;;;;;14.00;12.52;;;15.40;99.90;;;;;;4879100;29;20185;-77
2023/08/30 01:03:42;;;;;;;13.63;12.27;;;15.30;99.90;;;;;;4847514;29;20092;-66
2023/08/30 01:06:08;;;;;;;14.15;12.23;;;15.30;99.90;;;;;;4878733;29;20498;-65
2023/08/30 01:08:35;;;;;;;12.40;11.20;;;15.30;99.90;;;;;;4879303;29;20136;-66
2023/08/30 01:11:26;;;;;;;12.88;11.10;;;15.30;99.90;;;;;;4878331;29;20135;-67
2023/08/30 01:14:13;;;;;;;12.75;10.88;;;15.30;99.90;;;;;;4877863;29;20088;-67
2023/08/30 01:16:39;;;;;;;11.73;10.10;;;15.30;99.90;;;;;;4877814;29;20178;-66
2023/08/30 01:19:23;;;;;;;11.60;10.40;;;15.20;99.90;;;;;;4879637;29;20080;-65
2023/08/30 01:21:53;;;;;;;;;;;15.20;99.90;;;;;;4877943;29;20049;-65
2023/08/30 01:24:44;;;;;;;11.57;9.95;;;15.20;99.90;;;;;;4879040;29;20006;-66
2023/08/30 01:27:15;;;;;;;11.85;9.93;;;15.20;99.90;;;;;;4878263;29;20132;-65
2023/08/30 01:29:44;;;;;;;10.93;9.82;;;15.20;99.90;;;;;;4878922;29;20059;-66
2023/08/30 01:32:11;;;;;;;12.90;9.90;;;15.20;99.90;;;;;;4879243;29;20049;-65
2023/08/30 01:34:39;;;;;;;10.55;8.95;;;15.20;99.90;;;;;;4877799;29;20071;-68
2023/08/30 01:37:08;;;;;;;11.27;10.07;;;15.20;99.90;;;;;;4878543;29;20056;-66
2023/08/30 01:39:37;;;;;;;13.00;10.55;;;15.20;99.90;;;;;;4878187;29;20095;-65
2023/08/30 01:42:04;;;;;;;11.55;9.80;;;15.20;99.90;;;;;;4879294;29;20045;-65
2023/08/30 01:44:32;;;;;;;11.30;10.13;;;15.10;99.90;;;;;;4878263;29;20064;-66
2023/08/30 01:46:58;;;;;;;11.45;9.70;;;15.10;99.90;;;;;;4862055;29;20121;-66
2023/08/30 01:49:26;;;;;;;12.25;9.52;;;15.10;99.90;;;;;;4879072;29;20449;-66
2023/08/30 01:51:53;;;;;;;13.93;10.27;;;15.10;99.90;;;;;;4862192;29;20435;-65
2023/08/30 01:54:20;;;;;;;13.90;9.43;;;15.00;99.90;;;;;;4862646;29;20131;-65
2023/08/30 01:56:46;;;;;;;11.70;9.98;;;15.00;99.90;;;;;;4862148;29;20053;-66
2023/08/30 01:59:12;;;;;;;10.38;9.23;;;15.00;99.90;;;;;;4879180;29;20124;-64
2023/08/30 02:01:38;;;;;;;13.13;9.90;;;14.90;99.90;;;;;;4862088;29;20048;-66
2023/08/30 02:04:04;;;;;;;13.30;9.25;;;14.90;99.90;;;;;;4878525;29;20238;-65
2023/08/30 02:06:42;;;;;;;11.45;8.27;;;14.90;99.90;;;;;;4879011;29;20143;-65
2023/08/30 02:09:26;;;;;;;12.02;9.75;;;14.90;99.90;;;;;;4878816;29;20132;-65
2023/08/30 02:11:54;;;;;;;11.35;9.48;;;14.90;99.90;;;;;;4861367;29;20491;-66
2023/08/30 02:14:21;;;;;;;10.70;9.35;;;14.80;99.90;;;;;;4862249;29;20400;-65
2023/08/30 02:16:48;;;;;;;10.75;8.82;;;14.80;99.90;;;;;;4878245;29;20061;-65
2023/08/30 02:19:20;;;;;;;11.02;8.98;;;14.80;99.90;;;;;;4862223;29;20084;-65
2023/08/30 02:21:47;;;;;;;13.52;10.07;;;14.80;99.90;;;;;;4878089;29;20045;-65
2023/08/30 02:24:13;;;;;;;13.07;9.43;;;14.80;99.90;;;;;;4877857;29;20544;-65
2023/08/30 02:26:39;;;;;;;9.93;8.93;;;14.70;99.90;;;;;;4877579;29;20056;-65
2023/08/30 02:29:05;;;;;;;9.63;8.63;;;14.80;99.90;;;;;;4878152;29;20051;-65
2023/08/30 02:31:31;;;;;;;9.98;8.82;;;14.70;99.90;;;;;;4862080;29;20064;-65
2023/08/30 02:33:57;;;;;;;11.73;8.15;;;14.70;99.90;;;;;;4846218;29;20066;-65
2023/08/30 02:36:22;;;;;;;10.68;8.82;;;14.70;99.90;;;;;;4876639;29;20139;-65
2023/08/30 02:38:48;;;;;;;12.48;8.93;;;14.70;99.90;;;;;;4860451;29;20043;-66
2023/08/30 02:41:14;;;;;;;10.25;9.13;;;14.80;99.90;;;;;;4861728;29;20049;-65
2023/08/30 02:43:39;;;;;;;11.15;8.90;;;14.80;99.90;;;;;;4877158;29;20459;-66
2023/08/30 02:46:05;;;;;;;9.43;8.02;;;14.80;99.90;;;;;;4877854;29;20052;-65
2023/08/30 02:48:33;;;;;;;10.00;8.40;;;14.80;99.90;;;;;;4877918;29;20427;-66
2023/08/30 02:50:59;;;;;;;12.38;8.85;;;14.80;99.90;;;;;;4876365;29;20053;-65
2023/08/30 02:53:25;;;;;;;12.50;8.68;;;14.80;99.90;;;;;;4861594;29;20045;-65
2023/08/30 02:55:50;;;;;;;10.30;8.05;;;14.80;99.90;;;;;;4876756;29;20091;-68
2023/08/30 02:58:16;;;;;;;10.07;8.52;;;14.90;99.90;;;;;;4878155;29;20068;-65
2023/08/30 03:00:42;;;;;;;9.77;7.97;;;14.90;99.90;;;;;;4877524;29;20053;-65
2023/08/30 03:03:08;;;;;;;9.32;8.35;;;14.90;99.90;;;;;;4876139;29;20053;-65
2023/08/30 03:05:33;;;;;;;10.70;8.98;;;14.90;99.90;;;;;;4876866;29;20068;-65
2023/08/30 03:07:59;;;;;;;9.95;8.20;;;14.90;99.90;;;;;;4876516;29;20056;-66
2023/08/30 03:10:25;;;;;;;10.27;8.40;;;14.80;99.90;;;;;;4862015;29;20392;-65
2023/08/30 03:12:51;;;;;;;10.07;8.48;;;14.80;99.90;;;;;;4881815;29;20183;-66
2023/08/30 03:15:17;;;;;;;10.98;8.38;;;14.80;99.90;;;;;;4881478;29;20052;-65
2023/08/30 03:17:43;;;;;;;8.98;8.07;;;14.70;99.90;;;;;;4881525;29;20063;-65
2023/08/30 03:20:09;;;;;;;9.50;8.50;;;14.70;99.90;;;;;;4849585;29;20072;-66
2023/08/30 03:22:34;;;;;;;9.50;8.32;;;14.60;99.90;;;;;;4880473;29;20053;-65
2023/08/30 03:25:03;;;;;;;10.13;8.65;;;14.60;99.90;;;;;;4879762;29;20064;-66
2023/08/30 03:27:29;;;;;;;11.32;9.25;;;14.60;99.90;;;;;;4881500;29;20065;-66
2023/08/30 03:29:55;;;;;;;9.05;8.15;;;14.50;99.90;;;;;;4880392;29;20052;-69
2023/08/30 03:32:22;;;;;;;10.25;8.55;;;14.50;99.90;;;;;;4865052;29;20056;-66
2023/08/30 03:34:48;;;;;;;12.23;9.50;;;14.50;99.90;;;;;;4880458;29;20053;-65
2023/08/30 03:37:17;;;;;;;11.18;8.63;;;14.50;99.90;;;;;;4880160;29;20060;-65
2023/08/30 03:39:43;;;;;;;11.82;9.00;;;14.40;99.90;;;;;;4880180;29;20060;-66
2023/08/30 03:42:09;;;;;;;12.75;9.70;;;14.40;99.90;;;;;;4879691;29;20057;-66
2023/08/30 03:44:35;;;;;;;10.80;9.35;;;14.40;99.90;;;;;;4880229;29;20140;-65
2023/08/30 03:47:01;;;;;;;11.43;9.13;;;14.40;99.90;;;;;;4880574;29;20144;-65
2023/08/30 03:49:26;;;;;;;13.35;9.45;;;14.30;99.90;;;;;;4881183;29;20056;-66
2023/08/30 03:51:52;;;;;;;11.43;10.15;;;14.30;99.90;;;;;;4879668;29;20041;-66
2023/08/30 03:54:18;;;;;;;11.48;10.07;;;14.30;99.90;;;;;;4880648;29;20503;-65
2023/08/30 03:56:44;;;;;;;11.15;9.95;;;14.30;99.90;;;;;;4879528;29;20088;-65
2023/08/30 03:59:11;;;;;;;14.07;11.20;;;14.20;99.90;;;;;;4880627;29;20124;-66
2023/08/30 04:01:36;;;;;;;14.27;10.93;;;14.20;99.90;;;;;;4881131;29;20096;-67
2023/08/30 04:04:02;;;;;;;14.63;11.18;;;14.20;99.90;;;;;;4880454;29;20049;-67
2023/08/30 04:06:28;;;;;;;12.85;10.90;;;14.10;99.90;;;;;;4879678;29;20488;-66
2023/08/30 04:08:54;;;;;;;11.68;10.32;;;14.10;99.90;;;;;;4880825;29;20047;-66
2023/08/30 04:11:19;;;;;;;12.77;10.35;;;14.10;99.90;;;;;;4879593;29;20511;-65
2023/08/30 04:13:45;;;;;;;14.40;10.60;;;14.00;99.90;;;;;;4879667;29;20518;-66
2023/08/30 04:16:11;;;;;;;12.07;10.27;;;14.00;99.90;;;;;;4880091;29;20132;-67
2023/08/30 04:18:36;;;;;;;13.95;10.77;;;13.90;99.90;;;;;;4880575;29;20051;-69
2023/08/30 04:21:02;;;;;;;13.82;10.82;;;13.90;99.90;;;;;;4864043;29;20045;-69
2023/08/30 04:23:29;;;;;;;12.48;10.60;;;14.00;99.90;;;;;;4877999;29;20510;-66
2023/08/30 04:25:55;;;;;;;12.05;10.32;;;14.00;99.90;;;;;;4879436;29;20065;-66
2023/08/30 04:28:21;;;;;;;12.30;10.43;;;13.90;99.90;;;;;;4880019;29;20124;-66
2023/08/30 04:30:46;;;;;;;12.05;9.98;;;13.90;99.90;;;;;;4880264;29;20048;-67
2023/08/30 04:33:12;;;;;;;12.80;11.02;;;14.00;99.90;;;;;;4878966;29;20056;-66
2023/08/30 04:35:38;;;;;;;12.30;9.00;;;14.00;99.90;;;;;;4879054;29;20546;-67
2023/08/30 04:38:04;;;;;;;11.10;9.20;;;14.00;99.90;;;;;;4863714;29;20405;-66
2023/08/30 04:40:31;;;;;;;10.95;9.65;;;14.00;99.90;;;;;;4863522;29;20053;-66
2023/08/30 04:42:58;;;;;;;12.88;9.77;;;14.00;99.90;;;;;;4863754;29;20147;-66
2023/08/30 04:45:24;;;;;;;12.93;9.50;;;14.00;99.90;;;;;;4863237;29;20065;-66
2023/08/30 04:47:50;;;;;;;10.65;9.55;;;14.00;99.90;;;;;;4879955;29;20505;-66
2023/08/30 04:50:16;;;;;;;11.65;8.82;;;14.00;99.90;;;;;;4879536;29;20071;-65
2023/08/30 04:52:42;;;;;;;13.57;9.93;;;14.00;99.90;;;;;;4864143;29;20406;-65
2023/08/30 04:55:08;;;;;;;10.68;9.23;;;14.00;99.90;;;;;;4878982;29;20053;-69
2023/08/30 04:57:34;;;;;;;10.57;8.60;;;13.90;99.90;;;;;;4879751;29;20045;-65
2023/08/30 05:00:04;;;;;;;10.70;9.20;;;14.00;99.90;;;;;;4880090;29;20369;-66
2023/08/30 05:02:30;;;;;;;11.68;9.38;;;14.00;99.90;;;;;;4878563;29;20041;-65
2023/08/30 05:04:55;;;;;;;10.65;9.35;;;14.00;99.90;;;;;;4863659;29;20093;-65
2023/08/30 05:07:21;;;;;;;11.68;9.07;;;14.00;99.90;;;;;;4879134;29;20352;-66
2023/08/30 05:09:47;;;;;;;12.23;8.70;;;14.00;99.90;;;;;;4879721;29;20052;-66
2023/08/30 05:12:12;;;;;;;12.32;8.55;;;14.00;99.90;;;;;;4878613;29;20171;-69
2023/08/30 05:14:40;;;;;;;10.80;9.07;;;14.00;99.90;;;;;;4879009;29;20041;-66
2023/08/30 05:17:06;;;;;;;11.00;8.95;;;14.10;99.90;;;;;;4878964;29;20049;-65
2023/08/30 05:19:32;;;;;;;10.82;9.02;;;14.00;99.90;;;;;;4878746;29;20045;-66
2023/08/30 05:21:57;;;;;;;11.10;9.02;;;14.10;99.90;;;;;;4878902;29;20144;-66
2023/08/30 05:24:23;;;;;;;12.70;9.05;;;14.10;99.90;;;;;;4878976;29;20053;-66
2023/08/30 05:26:49;;;;;;;11.90;8.93;;;14.20;99.90;;;;;;4863399;29;20068;-66
2023/08/30 05:29:15;;;;;;;10.65;7.93;;;14.20;99.90;;;;;;4878034;29;20384;-69
2023/08/30 05:31:41;;;;;;;11.05;8.80;;;14.30;99.90;;;;;;4862887;29;20060;-64
2023/08/30 05:34:07;;;;;;;14.73;9.07;;;14.40;99.90;;;;;;4879297;29;20131;-66
2023/08/30 05:36:33;;;;;;;12.65;8.80;;;14.40;99.90;;;;;;4877955;29;20145;-65
2023/08/30 05:38:58;;;;;;;11.98;8.57;;;14.40;99.90;;;;;;4879604;29;20049;-65
2023/08/30 05:41:24;;;;;;;12.27;8.43;;;14.40;99.90;;;;;;4878649;29;20132;-66
2023/08/30 05:43:51;;;;;;;10.48;8.20;;;14.50;99.90;;;;;;4878096;29;20088;-67
2023/08/30 05:46:17;;;;;;;13.40;9.40;;;14.50;99.90;;;;;;4877646;29;20061;-69
2023/08/30 05:48:43;;;;;;;11.90;8.32;;;14.50;99.90;;;;;;4879448;29;20120;-66
2023/08/30 05:51:08;;;;;;;12.20;8.43;;;14.60;99.90;;;;;;4877901;29;20431;-67
2023/08/30 05:53:34;;;;;;;15.50;9.57;;;14.60;99.90;;;;;;4878956;29;20080;-66
2023/08/30 05:56:00;;;;;;;10.45;8.27;;;14.60;99.90;;;;;;4879097;29;20059;-65
2023/08/30 05:58:26;;;;;;;13.90;9.05;;;14.60;99.90;;;;;;4877624;29;20049;-66
2023/08/30 06:00:51;;;;;;;11.85;9.30;;;14.70;99.90;;;;;;4878030;29;20528;-66
2023/08/30 06:03:17;;;;;;;12.43;8.90;;;14.60;99.90;;;;;;4862672;29;20049;-66
2023/08/30 06:05:43;;;;;;;11.02;9.48;;;14.70;99.90;;;;;;4878536;29;20208;-66
2023/08/30 06:08:09;;;;;;;13.23;9.95;;;14.70;99.90;;;;;;4878592;29;20096;-67
2023/08/30 06:10:35;;;;;;;10.32;8.55;;;14.80;99.90;;;;;;4878296;29;20049;-65
2023/08/30 06:13:02;;;;;;;10.80;9.15;;;14.90;99.90;;;;;;4878315;29;20441;-65
2023/08/30 06:15:28;;;;;;;14.35;9.70;;;14.80;99.90;;;;;;4877180;29;20131;-65
2023/08/30 06:17:54;;;;;;;12.13;9.13;;;14.80;99.90;;;;;;4877602;29;20048;-65
2023/08/30 06:20:20;;;;;;;13.65;9.60;;;14.80;99.90;;;;;;4877368;29;20068;-65
2023/08/30 06:22:46;;;;;;;14.88;8.57;;;14.90;99.90;;;;;;4861570;29;20045;-65
2023/08/30 06:25:12;;;;;;;13.52;9.50;;;14.90;99.90;;;;;;4861627;29;20143;-65
2023/08/30 06:27:42;;;;;;;10.75;9.02;;;15.00;99.90;;;;;;4877948;29;20045;-65
2023/08/30 06:30:08;;;;;;;12.57;9.80;;;15.10;99.90;;;;;;4862112;29;20140;-65
2023/08/30 06:32:34;;;;;;;13.18;8.95;;;15.20;99.90;;;;;;4878038;29;20056;-67
2023/08/30 06:35:00;;;;;;;13.18;9.35;;;15.30;99.90;;;;;;4877317;29;20448;-65
2023/08/30 06:37:25;;;;;;;12.90;8.52;;;15.40;99.90;;;;;;4861839;29;20147;-69
2023/08/30 06:39:51;;;;;;;13.75;8.23;;;15.60;99.90;;;;;;4877181;29;20045;-65
2023/08/30 06:42:17;;;;;;;10.38;8.07;;;16.00;99.90;;;;;;4878479;29;20064;-67
2023/08/30 06:44:43;;;;;;;12.30;8.95;;;16.40;99.90;;;;;;4876697;29;20053;-66
2023/08/30 06:47:08;;;;;;;13.75;8.75;;;16.70;99.90;;;;;;4876651;29;20071;-66
2023/08/30 06:49:34;;;;;;;10.75;8.75;;;16.70;99.90;;;;;;4861016;29;20135;-66
2023/08/30 06:52:03;;;;;;;11.05;8.85;;;16.70;99.90;;;;;;4877093;29;20052;-66
2023/08/30 06:54:30;;;;;;;12.60;8.73;;;16.70;99.90;;;;;;4876763;29;20048;-66
2023/08/30 06:56:59;;;;;;;11.25;8.70;;;16.60;99.90;;;;;;4878196;29;20057;-66
2023/08/30 06:59:29;;;;;;;10.25;7.95;;;16.40;99.90;;;;;;4877120;29;20403;-66
2023/08/30 07:01:54;;;;;;;12.40;8.45;;;16.20;99.90;;;;;;4861628;29;20056;-68
2023/08/30 07:04:20;;;;;;;9.23;7.93;;;16.20;99.90;;;;;;4876790;29;20081;-67
2023/08/30 07:06:46;;;;;;;11.32;8.60;;;16.10;99.90;;;;;;4877811;29;20079;-69
2023/08/30 07:09:12;;;;;;;11.63;7.95;;;16.10;99.90;;;;;;4876902;29;20045;-69
2023/08/30 07:11:38;;;;;;;10.43;7.55;;;16.20;99.90;;;;;;4877674;29;20072;-68
2023/08/30 07:14:04;;;;;;;10.70;7.90;;;16.30;99.90;;;;;;4875518;29;20052;-66
2023/08/30 07:16:31;;;;;;;11.55;8.48;;;16.30;99.90;;;;;;4878052;29;20060;-67
2023/08/30 07:18:58;;;;;;;12.02;8.10;;;16.40;99.90;;;;;;4876907;29;20488;-66
2023/08/30 07:21:24;;;;;;;10.73;7.72;;;16.40;99.90;;;;;;4877994;29;20053;-66
2023/08/30 07:23:49;;;;;;;13.82;8.07;;;16.40;99.90;;;;;;4875987;29;20180;-66
2023/08/30 07:26:15;;;;;;;9.98;7.63;;;16.40;99.90;;;;;;4877722;29;20129;-66
2023/08/30 07:28:41;;;;;;;11.40;7.20;;;16.50;99.90;;;;;;4877692;29;20141;-66
2023/08/30 07:31:07;;;;;;;10.10;7.57;;;16.40;99.90;;;;;;4877842;29;20059;-66
2023/08/30 07:33:33;;;;;;;11.35;7.68;;;16.40;99.90;;;;;;4877835;29;20056;-68
2023/08/30 07:35:58;;;;;;;10.48;7.40;;;16.40;99.90;;;;;;4876410;29;20053;-67
2023/08/30 07:38:24;;;;;;;11.73;7.50;;;16.30;99.90;;;;;;4877258;29;20053;-67
2023/08/30 07:40:50;;;;;;;12.32;7.32;;;16.30;99.90;;;;;;4876611;29;20049;-66
2023/08/30 07:43:16;;;;;;;9.32;7.03;;;16.40;99.90;;;;;;4875906;29;20125;-67
2023/08/30 07:45:41;;;;;;;10.05;7.00;;;16.40;99.90;;;;;;4860052;29;20060;-65
2023/08/30 07:48:07;;;;;;;11.13;7.75;;;16.40;99.90;;;;;;4876692;29;20049;-64
2023/08/30 07:50:33;;;;;;;9.88;7.55;;;16.50;99.90;;;;;;4877710;29;20139;-64
2023/08/30 07:52:59;;;;;;;9.52;7.40;;;16.60;99.90;;;;;;4876128;29;20048;-64
2023/08/30 07:55:25;;;;;;;11.55;7.90;;;16.90;99.90;;;;;;4877681;29;20053;-65
2023/08/30 07:57:50;;;;;;;12.45;6.95;;;17.20;99.90;;;;;;4879749;29;20155;-64
2023/08/30 08:00:16;;;;;;;9.80;6.70;;;17.30;99.90;;;;;;4879790;29;20053;-65
2023/08/30 08:02:42;;;;;;;9.30;7.38;;;17.40;99.90;;;;;;4881137;29;20049;-66
2023/08/30 08:05:08;;;;;;;11.18;6.80;;;17.40;99.90;;;;;;4879969;29;20487;-64
2023/08/30 08:07:38;;;;;;;11.80;7.10;;;17.30;99.90;;;;;;4864375;29;20176;-65
2023/08/30 08:10:05;;;;;;;10.27;6.28;;;17.30;99.90;;;;;;4881108;29;20049;-65
2023/08/30 08:12:32;;;;;;;10.23;6.05;;;17.30;99.90;;;;;;4880997;29;20049;-65
2023/08/30 08:14:58;;;;;;;13.65;6.30;;;17.40;99.90;;;;;;4880552;29;20056;-65
2023/08/30 08:17:24;;;;;;;9.65;6.88;;;17.50;99.90;;;;;;4864354;29;20056;-65
2023/08/30 08:19:50;;;;;;;9.82;6.50;;;17.50;99.90;;;;;;4879142;29;20049;-65
2023/08/30 08:22:16;;;;;;;7.82;6.18;;;17.60;99.90;;;;;;4880000;29;20052;-65
2023/08/30 08:24:43;;;;;;;9.70;6.47;;;17.70;99.90;;;;;;4879251;29;20431;-68
2023/08/30 08:27:09;;;;;;;8.52;6.20;;;17.60;99.90;;;;;;4880716;29;20053;-65
2023/08/30 08:29:35;;;;;;;9.30;6.60;;;17.70;99.90;;;;;;4880862;29;20052;-64
2023/08/30 08:32:01;;;;;;;9.35;6.72;;;17.70;99.90;;;;;;4848333;29;20471;-65
2023/08/30 08:34:27;;;;;;;11.45;7.68;;;17.80;99.90;;;;;;4880545;29;20057;-65
2023/08/30 08:36:52;;;;;;;10.88;6.88;;;17.80;99.90;;;;;;4878527;29;20068;-65
2023/08/30 08:39:18;;;;;;;9.98;6.85;;;17.80;99.90;;;;;;4879311;29;20114;-66
2023/08/30 08:41:45;;;;;;;9.55;7.00;;;17.80;99.90;;;;;;4879082;29;20049;-67
2023/08/30 08:44:13;;;;;;;11.52;7.35;;;17.80;99.90;;;;;;4879599;29;20056;-64
2023/08/30 08:46:40;;;;;;;9.38;6.50;;;17.80;99.90;;;;;;4863771;29;20111;-64
2023/08/30 08:49:13;;;;;;;14.40;7.13;;;17.90;99.90;;;;;;4880060;29;20111;-65
2023/08/30 08:51:40;;;;;;;10.82;6.70;;;18.00;99.90;;;;;;4848853;29;20480;-63
2023/08/30 08:54:06;;;;;;;9.70;6.60;;;18.10;99.90;;;;;;4863587;29;20274;-66
2023/08/30 08:56:33;;;;;;;10.73;7.38;;;18.20;99.90;;;;;;4879961;29;20488;-66
2023/08/30 08:59:00;;;;;;;11.35;7.35;;;18.30;99.90;;;;;;4880131;29;20045;-66
2023/08/30 09:01:27;;;;;;;9.70;6.63;;;18.40;99.90;;;;;;4879939;29;20053;-64
2023/08/30 09:03:53;;;;;;;9.98;6.70;;;18.30;99.90;;;;;;4879266;29;20480;-65
2023/08/30 09:06:20;;;;;;;9.90;6.95;;;18.30;99.90;;;;;;4879952;29;20049;-65
2023/08/30 09:08:46;;;;;;;11.10;7.30;;;18.20;99.90;;;;;;4862460;29;20059;-68
2023/08/30 09:11:11;;;;;;;11.32;6.82;;;18.10;99.90;;;;;;4879729;29;20048;-68
2023/08/30 09:13:37;;;;;;;10.95;6.97;;;18.00;99.90;;;;;;4879658;29;20121;-65
2023/08/30 09:16:12;;;;;;;11.52;7.10;;;17.90;99.90;;;;;;4879091;29;20060;-65
2023/08/30 09:18:38;;;;;;;12.27;7.13;;;17.90;99.90;;;;;;4879727;29;20460;-65
2023/08/30 09:21:08;;;;;;;12.13;7.60;;;17.80;99.90;;;;;;4879368;29;20057;-66
2023/08/30 09:23:34;;;;;;;10.25;6.90;;;17.80;99.90;;;;;;4879261;29;20056;-67
2023/08/30 09:26:00;;;;;;;10.73;7.05;;;17.80;99.90;;;;;;4878348;29;20056;-68
2023/08/30 09:28:26;;;;;;;9.10;6.57;;;17.70;99.90;;;;;;4879840;29;20049;-67
2023/08/30 09:31:02;;;;;;;9.43;6.35;;;17.60;99.90;;;;;;4878262;29;20472;-68
2023/08/30 09:33:34;;;;;;;9.43;6.97;;;17.70;99.90;;;;;;4879995;29;20334;-66
2023/08/30 09:36:00;;;;;;;10.52;6.55;;;17.60;99.90;;;;;;4879225;29;20056;-68
2023/08/30 09:38:26;;;;;;;9.70;6.70;;;17.60;99.90;;;;;;4878777;29;20056;-67
2023/08/30 09:41:05;;;;;;;11.82;6.63;;;17.60;99.90;;;;;;4847528;29;20045;-70
2023/08/30 09:43:34;;;;;;;10.73;7.50;;;17.60;99.90;;;;;;4863111;29;20053;-68
2023/08/30 09:46:04;;;;;;;10.13;7.25;;;17.60;99.90;;;;;;4877981;29;20511;-69
2023/08/30 09:48:32;;;;;;;13.20;6.85;;;17.60;99.90;;;;;;4879616;29;20128;-67
2023/08/30 09:51:01;;;;;;;11.20;6.95;;;17.70;99.90;;;;;;4877999;29;20056;-68
2023/08/30 09:53:29;;;;;;;12.32;7.30;;;17.70;99.90;;;;;;4878110;29;20055;-69
2023/08/30 09:55:57;;;;;;;9.30;6.75;;;17.70;99.90;;;;;;4879069;29;20060;-67
2023/08/30 09:58:24;;;;;;;9.15;7.20;;;17.80;99.90;;;;;;4879228;29;20088;-67
2023/08/30 10:00:51;;;;;;;11.18;7.28;;;17.70;99.90;;;;;;4878383;29;20484;-67
2023/08/30 10:03:17;;;;;;;12.80;7.45;;;17.70;99.90;;;;;;4862641;29;20048;-66
2023/08/30 10:05:44;;;;;;;9.93;7.47;;;17.70;99.90;;;;;;4879555;29;20049;-67
2023/08/30 10:08:12;;;;;;;10.27;7.03;;;17.70;99.90;;;;;;4873810;29;20052;-67
2023/08/30 10:10:39;;;;;;;8.43;6.53;;;17.70;99.90;;;;;;4874234;29;20077;-67
2023/08/30 10:13:06;;;;;;;9.90;7.13;;;17.80;99.90;;;;;;4876189;29;20059;-68
2023/08/30 10:15:37;;;;;;;8.55;6.80;;;17.80;99.90;;;;;;4878595;29;20085;-67
2023/08/30 10:18:05;;;;;;;10.00;7.07;;;17.80;99.90;;;;;;4878415;29;20052;-67
2023/08/30 10:20:32;;;;;;;12.23;6.82;;;17.90;99.90;;;;;;4877629;29;20060;-67
2023/08/30 10:22:58;;;;;;;6.97;5.63;;;18.00;99.90;;;;;;4878435;29;20064;-68
2023/08/30 10:25:29;;;;;;;6.95;4.93;;;18.00;99.90;;;;;;4878605;29;20056;-67
2023/08/30 10:27:56;;;;;;;6.75;4.70;;;18.00;99.90;;;;;;4878998;29;20075;-67
2023/08/30 10:30:22;;;;;;;5.78;4.60;;;17.90;99.90;;;;;;4877702;29;20552;-68
2023/08/30 10:32:48;;;;;;;8.05;5.70;;;17.90;99.90;;;;;;4878563;29;20492;-66
2023/08/30 10:35:15;;;;;;;8.82;5.00;;;17.90;99.90;;;;;;4877840;29;20132;-67
2023/08/30 10:37:42;;;;;;;8.70;5.75;;;17.80;99.90;;;;;;4877218;29;20136;-66
2023/08/30 10:40:09;;;;;;;9.10;6.00;;;17.80;99.90;;;;;;4876949;29;20055;-67
2023/08/30 10:42:35;;;;;;;9.88;6.35;;;17.80;99.90;;;;;;4878130;29;20048;-66
2023/08/30 10:45:07;;;;;;;10.45;6.65;;;17.90;99.90;;;;;;4877732;29;20576;-66
2023/08/30 10:47:37;;;;;;;10.88;5.85;;;18.00;99.90;;;;;;4877965;29;20587;-66
2023/08/30 10:50:33;;;;;;;8.40;6.30;;;18.00;99.90;;;;;;4877734;29;20060;-68
2023/08/30 10:52:59;;;;;;;7.55;5.95;;;18.10;99.90;;;;;;4878260;29;20380;-66
2023/08/30 10:55:25;;;;;;;10.35;6.47;;;18.30;99.90;;;;;;4877498;29;20081;-66
2023/08/30 10:58:02;;;;;;;9.30;6.25;;;18.30;99.90;;;;;;4878100;29;20091;-66
2023/08/30 11:00:30;;;;;;;9.32;6.50;;;18.30;99.90;;;;;;4878224;29;20120;-66
2023/08/30 11:02:56;;;;;;;8.55;6.82;;;18.30;99.90;;;;;;4876978;29;20088;-66
2023/08/30 11:05:23;;;;;;;12.00;7.00;;;18.40;99.90;;;;;;4876694;29;20061;-66
2023/08/30 11:07:50;;;;;;;11.68;6.90;;;18.30;99.90;;;;;;4877807;29;20492;-68
2023/08/30 11:10:17;;;;;;;9.43;6.68;;;18.30;99.90;;;;;;4876766;29;20610;-66
2023/08/30 11:12:44;;;;;;;7.38;5.60;;;18.40;99.90;;;;;;4878121;29;20148;-66
2023/08/30 11:15:11;;;;;;;9.95;5.97;;;18.40;99.90;;;;;;4876678;29;20056;-66
2023/08/30 11:17:37;;;;;;;8.73;6.13;;;18.30;99.90;;;;;;4878178;29;20403;-66
2023/08/30 11:20:10;;;;;;;8.07;4.85;;;18.30;99.90;;;;;;4861589;29;20045;-66
2023/08/30 11:22:44;;;;;;;7.43;4.82;;;18.30;99.90;;;;;;4878214;29;20089;-66
2023/08/30 11:25:12;;;;;;;7.07;4.95;;;18.30;99.90;;;;;;4877805;29;20136;-66
2023/08/30 11:27:38;;;;;;;7.10;4.90;;;18.30;99.90;;;;;;4878047;29;20093;-66
2023/08/30 11:30:08;;;;;;;7.55;4.57;;;18.30;99.90;;;;;;4878025;29;20116;-66
2023/08/30 11:32:35;;;;;;;5.43;4.15;;;18.30;99.90;;;;;;4880386;29;20052;-66
2023/08/30 11:35:02;;;;;;;9.55;4.55;;;18.40;99.90;;;;;;4880770;29;20051;-66
2023/08/30 11:37:28;;;;;;;7.22;5.10;;;18.50;99.90;;;;;;4880170;29;20049;-67
2023/08/30 11:39:56;;;;;;;8.15;5.03;;;18.50;99.90;;;;;;4880715;29;20131;-66
2023/08/30 11:42:23;;;;;;;7.13;5.20;;;18.60;99.90;;;;;;4881377;29;20049;-66
2023/08/30 11:44:50;;;;;;;7.32;5.10;;;18.70;99.90;;;;;;4881957;29;20053;-65
2023/08/30 11:47:20;;;;;;;7.63;5.05;;;18.60;99.90;;;;;;4880048;29;20053;-66
2023/08/30 11:49:49;;;;;;;7.78;5.07;;;18.60;99.90;;;;;;4881738;29;20124;-66
2023/08/30 11:52:15;;;;;;;8.38;4.53;;;18.60;99.90;;;;;;4881208;29;20049;-67
2023/08/30 11:54:41;;;;;;;7.05;4.78;;;18.50;99.90;;;;;;4864884;29;20462;-66
2023/08/30 11:57:08;;;;;;;6.97;4.97;;;18.40;99.90;;;;;;4880596;29;20101;-66
2023/08/30 11:59:37;;;;;;;7.13;4.63;;;18.40;99.90;;;;;;4864698;29;20085;-66
2023/08/30 12:02:03;;;;;;;6.30;3.92;;;18.40;99.90;;;;;;4881668;29;20057;-66
2023/08/30 12:04:30;;;;;;;6.40;3.65;;;18.40;99.90;;;;;;4880848;29;20055;-67
2023/08/30 12:06:56;;;;;;;5.25;3.58;;;18.50;99.90;;;;;;4880303;29;20128;-65
2023/08/30 12:09:22;;;;;;;5.90;3.65;;;18.50;99.90;;;;;;4879854;29;20104;-66
2023/08/30 12:11:51;;;;;;;7.05;3.67;;;18.50;99.90;;;;;;4865028;29;20049;-66
2023/08/30 12:14:17;;;;;;;6.32;3.50;;;18.50;99.90;;;;;;4880098;29;20060;-68
2023/08/30 12:16:46;;;;;;;5.85;3.92;;;18.40;99.90;;;;;;4880152;29;20123;-66
2023/08/30 12:19:14;;;;;;;7.07;4.10;;;18.40;99.90;;;;;;4880929;29;20052;-67
2023/08/30 12:21:41;;;;;;;6.18;4.18;;;18.40;99.90;;;;;;4880109;29;20052;-65
2023/08/30 12:24:07;;;;;;;7.22;4.00;;;18.30;99.90;;;;;;4864567;29;20061;-65
2023/08/30 12:26:34;;;;;;;5.80;4.28;;;18.20;99.90;;;;;;4863831;29;20207;-66
2023/08/30 12:29:00;;;;;;;6.10;4.47;;;18.00;99.90;;;;;;4879531;29;20045;-67
2023/08/30 12:31:27;;;;;;;7.40;4.38;;;17.90;99.90;;;;;;4879527;29;20064;-65
2023/08/30 12:33:54;;;;;;;7.18;4.93;;;17.80;99.90;;;;;;4880967;29;20053;-65
2023/08/30 12:36:20;;;;;;;8.05;4.85;;;17.70;99.90;;;;;;4879363;29;20526;-65